sensor_id;sensor_type;location;lat;lon;timestamp;pressure;altitude;pressure_sealevel;temperature;humidity
7940;BME280;4015;48.888;9.226;2023-07-30T00:01:05;159846.34;;;18.31;100.00
7940;BME280;4015;48.888;9.226;2023-07-30T00:03:30;159805.28;;;18.15;100.00
7940;BME280;4015;48.888;9.226;2023-07-30T00:05:56;159836.06;;;18.27;100.00
7940;BME280;4015;48.888;9.226;2023-07-30T00:08:22;159779.63;;;18.05;100.00
7940;BME280;4015;48.888;9.226;2023-07-30T00:10:47;159771.91;;;18.02;100.00
7940;BME280;4015;48.888;9.226;2023-07-30T00:13:13;159746.28;;;17.92;100.00
7940;BME280;4015;48.888;9.226;2023-07-30T00:15:38;159766.81;;;18.00;100.00
7940;BME280;4015;48.888;9.226;2023-07-30T00:18:03;159727.00;;;17.84;100.00
7940;BME280;4015;48.888;9.226;2023-07-30T00:20:29;159771.91;;;18.02;100.00
7940;BME280;4015;48.888;9.226;2023-07-30T00:22:54;159711.59;;;17.78;100.00
7940;BME280;4015;48.888;9.226;2023-07-30T00:25:19;159752.69;;;17.94;100.00
7940;BME280;4015;48.888;9.226;2023-07-30T00:27:44;159666.69;;;17.60;100.00
7940;BME280;4015;48.888;9.226;2023-07-30T00:30:10;159657.69;;;17.57;100.00
7940;BME280;4015;48.888;9.226;2023-07-30T00:32:35;159638.47;;;17.49;100.00
7940;BME280;4015;48.888;9.226;2023-07-30T00:35:01;159651.28;;;17.54;100.00
7940;BME280;4015;48.888;9.226;2023-07-30T00:37:26;159670.53;;;17.62;100.00
7940;BME280;4015;48.888;9.226;2023-07-30T00:39:51;159689.75;;;17.69;100.00
7940;BME280;4015;48.888;9.226;2023-07-30T00:42:17;159694.94;;;17.71;100.00
7940;BME280;4015;48.888;9.226;2023-07-30T00:44:42;159696.19;;;17.72;100.00
7940;BME280;4015;48.888;9.226;2023-07-30T00:47:07;159737.28;;;17.88;100.00
7940;BME280;4015;48.888;9.226;2023-07-30T00:49:33;159723.16;;;17.83;100.00
7940;BME280;4015;48.888;9.226;2023-07-30T00:51:59;159702.66;;;17.74;100.00
7940;BME280;4015;48.888;9.226;2023-07-30T00:54:25;159715.50;;;17.79;100.00
7940;BME280;4015;48.888;9.226;2023-07-30T00:56:51;159701.38;;;17.74;100.00
7940;BME280;4015;48.888;9.226;2023-07-30T00:59:18;159694.94;;;17.71;100.00
7940;BME280;4015;48.888;9.226;2023-07-30T01:01:45;159760.34;;;17.97;100.00
7940;BME280;4015;48.888;9.226;2023-07-30T01:04:14;159760.34;;;17.97;100.00
7940;BME280;4015;48.888;9.226;2023-07-30T01:06:39;159747.56;;;17.92;100.00
7940;BME280;4015;48.888;9.226;2023-07-30T01:09:04;159752.69;;;17.94;100.00
7940;BME280;4015;48.888;9.226;2023-07-30T01:11:30;159756.50;;;17.96;100.00
7940;BME280;4015;48.888;9.226;2023-07-30T01:13:55;159792.44;;;18.10;100.00
7940;BME280;4015;48.888;9.226;2023-07-30T01:16:22;159796.31;;;18.12;100.00
7940;BME280;4015;48.888;9.226;2023-07-30T01:18:47;159778.34;;;18.04;100.00
7940;BME280;4015;48.888;9.226;2023-07-30T01:21:12;159778.34;;;18.04;100.00
7940;BME280;4015;48.888;9.226;2023-07-30T01:23:38;159773.19;;;18.02;100.00
7940;BME280;4015;48.888;9.226;2023-07-30T01:26:19;159782.19;;;18.06;100.00
7940;BME280;4015;48.888;9.226;2023-07-30T01:28:49;159764.25;;;17.99;100.00
7940;BME280;4015;48.888;9.226;2023-07-30T01:31:16;159720.59;;;17.82;100.00
7940;BME280;4015;48.888;9.226;2023-07-30T01:33:46;159802.72;;;18.14;100.00
7940;BME280;4015;48.888;9.226;2023-07-30T01:36:15;159792.44;;;18.10;100.00
7940;BME280;4015;48.888;9.226;2023-07-30T01:38:42;159774.47;;;18.03;100.00
7940;BME280;4015;48.888;9.226;2023-07-30T01:41:08;159769.34;;;18.01;100.00
7940;BME280;4015;48.888;9.226;2023-07-30T01:43:33;159816.84;;;18.20;100.00
7940;BME280;4015;48.888;9.226;2023-07-30T01:45:58;159793.75;;;18.11;100.00
7940;BME280;4015;48.888;9.226;2023-07-30T01:48:24;159789.88;;;18.09;100.00
7940;BME280;4015;48.888;9.226;2023-07-30T01:50:49;159827.13;;;18.24;100.00
7940;BME280;4015;48.888;9.226;2023-07-30T01:53:14;159806.53;;;18.16;100.00
7940;BME280;4015;48.888;9.226;2023-07-30T01:55:40;159787.31;;;18.08;100.00
7940;BME280;4015;48.888;9.226;2023-07-30T01:58:09;159774.47;;;18.03;100.00
7940;BME280;4015;48.888;9.226;2023-07-30T02:00:34;159755.22;;;17.95;100.00
7940;BME280;4015;48.888;9.226;2023-07-30T02:03:00;159761.69;;;17.98;100.00
7940;BME280;4015;48.888;9.226;2023-07-30T02:05:25;159787.31;;;18.08;100.00
7940;BME280;4015;48.888;9.226;2023-07-30T02:07:51;159780.91;;;18.05;100.00
7940;BME280;4015;48.888;9.226;2023-07-30T02:10:16;159768.06;;;18.00;100.00
7940;BME280;4015;48.888;9.226;2023-07-30T02:12:41;159751.41;;;17.94;100.00
7940;BME280;4015;48.888;9.226;2023-07-30T02:15:07;159756.50;;;17.96;100.00
7940;BME280;4015;48.888;9.226;2023-07-30T02:17:32;159778.34;;;18.04;100.00
7940;BME280;4015;48.888;9.226;2023-07-30T02:19:57;159775.75;;;18.03;100.00
7940;BME280;4015;48.888;9.226;2023-07-30T02:22:23;159751.41;;;17.94;100.00
7940;BME280;4015;48.888;9.226;2023-07-30T02:24:48;159806.53;;;18.16;100.00
7940;BME280;4015;48.888;9.226;2023-07-30T02:27:13;159751.41;;;17.94;100.00
7940;BME280;4015;48.888;9.226;2023-07-30T02:29:39;159811.72;;;18.18;100.00
7940;BME280;4015;48.888;9.226;2023-07-30T02:32:05;159787.31;;;18.08;100.00
7940;BME280;4015;48.888;9.226;2023-07-30T02:34:30;159770.63;;;18.01;100.00
7940;BME280;4015;48.888;9.226;2023-07-30T02:36:56;159786.03;;;18.08;100.00
7940;BME280;4015;48.888;9.226;2023-07-30T02:39:21;159798.88;;;18.13;100.00
7940;BME280;4015;48.888;9.226;2023-07-30T02:41:46;159757.78;;;17.96;100.00
7940;BME280;4015;48.888;9.226;2023-07-30T02:44:12;159787.31;;;18.08;100.00
7940;BME280;4015;48.888;9.226;2023-07-30T02:46:37;159777.06;;;18.04;100.00
7940;BME280;4015;48.888;9.226;2023-07-30T02:49:02;159730.88;;;17.86;100.00
7940;BME280;4015;48.888;9.226;2023-07-30T02:51:27;159728.28;;;17.85;100.00
7940;BME280;4015;48.888;9.226;2023-07-30T02:53:57;159761.69;;;17.98;100.00
7940;BME280;4015;48.888;9.226;2023-07-30T02:56:23;159786.03;;;18.08;100.00
7940;BME280;4015;48.888;9.226;2023-07-30T02:58:48;159746.28;;;17.92;100.00
7940;BME280;4015;48.888;9.226;2023-07-30T03:01:14;159750.13;;;17.93;100.00
7940;BME280;4015;48.888;9.226;2023-07-30T03:03:39;159737.28;;;17.88;100.00
7940;BME280;4015;48.888;9.226;2023-07-30T03:06:04;159707.75;;;17.76;100.00
7940;BME280;4015;48.888;9.226;2023-07-30T03:08:30;159688.47;;;17.69;100.00
7940;BME280;4015;48.888;9.226;2023-07-30T03:10:58;159696.19;;;17.72;100.00
7940;BME280;4015;48.888;9.226;2023-07-30T03:13:24;159729.59;;;17.85;100.00
7940;BME280;4015;48.888;9.226;2023-07-30T03:15:49;159716.75;;;17.80;100.00
7940;BME280;4015;48.888;9.226;2023-07-30T03:18:14;159748.84;;;17.93;100.00
7940;BME280;4015;48.888;9.226;2023-07-30T03:20:40;159714.22;;;17.79;100.00
7940;BME280;4015;48.888;9.226;2023-07-30T03:23:05;159710.31;;;17.77;100.00
7940;BME280;4015;48.888;9.226;2023-07-30T03:25:30;159741.13;;;17.90;100.00
7940;BME280;4015;48.888;9.226;2023-07-30T03:27:56;159723.16;;;17.83;100.00
7940;BME280;4015;48.888;9.226;2023-07-30T03:30:21;159750.13;;;17.93;100.00
7940;BME280;4015;48.888;9.226;2023-07-30T03:32:46;159744.94;;;17.91;100.00
7940;BME280;4015;48.888;9.226;2023-07-30T03:35:12;159786.03;;;18.08;100.00
7940;BME280;4015;48.888;9.226;2023-07-30T03:37:37;159836.06;;;18.27;100.00
7940;BME280;4015;48.888;9.226;2023-07-30T03:40:02;159829.69;;;18.25;100.00
7940;BME280;4015;48.888;9.226;2023-07-30T03:42:28;159832.22;;;18.26;100.00
7940;BME280;4015;48.888;9.226;2023-07-30T03:44:53;159843.81;;;18.30;100.00
7940;BME280;4015;48.888;9.226;2023-07-30T03:47:18;159829.69;;;18.25;100.00
7940;BME280;4015;48.888;9.226;2023-07-30T03:49:44;159815.56;;;18.19;100.00
7940;BME280;4015;48.888;9.226;2023-07-30T03:52:09;159809.16;;;18.17;100.00
7940;BME280;4015;48.888;9.226;2023-07-30T03:54:34;159797.59;;;18.12;100.00
7940;BME280;4015;48.888;9.226;2023-07-30T03:57:00;159868.16;;;18.40;100.00
7940;BME280;4015;48.888;9.226;2023-07-30T03:59:25;159869.44;;;18.41;100.00
7940;BME280;4015;48.888;9.226;2023-07-30T04:01:51;159857.91;;;18.36;100.00
7940;BME280;4015;48.888;9.226;2023-07-30T04:04:16;159865.59;;;18.39;100.00
7940;BME280;4015;48.888;9.226;2023-07-30T04:06:42;159875.88;;;18.43;100.00
7940;BME280;4015;48.888;9.226;2023-07-30T04:09:07;159873.31;;;18.42;100.00
7940;BME280;4015;48.888;9.226;2023-07-30T04:11:33;159892.56;;;18.50;100.00
7940;BME280;4015;48.888;9.226;2023-07-30T04:13:58;159946.50;;;18.71;100.00
7940;BME280;4015;48.888;9.226;2023-07-30T04:16:24;159983.75;;;18.86;100.00
7940;BME280;4015;48.888;9.226;2023-07-30T04:18:49;159994.00;;;18.90;100.00
7940;BME280;4015;48.888;9.226;2023-07-30T04:21:14;160032.53;;;19.05;100.00
7940;BME280;4015;48.888;9.226;2023-07-30T04:23:40;159996.56;;;18.91;100.00
7940;BME280;4015;48.888;9.226;2023-07-30T04:26:05;160020.97;;;19.01;100.00
7940;BME280;4015;48.888;9.226;2023-07-30T04:28:31;159978.59;;;18.84;100.00
7940;BME280;4015;48.888;9.226;2023-07-30T04:30:56;159958.06;;;18.76;100.00
7940;BME280;4015;48.888;9.226;2023-07-30T04:33:21;159991.44;;;18.89;100.00
7940;BME280;4015;48.888;9.226;2023-07-30T04:35:47;160009.41;;;18.96;100.00
7940;BME280;4015;48.888;9.226;2023-07-30T04:38:12;160026.09;;;19.03;100.00
7940;BME280;4015;48.888;9.226;2023-07-30T04:40:38;160026.09;;;19.03;100.00
7940;BME280;4015;48.888;9.226;2023-07-30T04:43:04;159986.31;;;18.87;100.00
7940;BME280;4015;48.888;9.226;2023-07-30T04:45:29;159977.31;;;18.83;100.00
7940;BME280;4015;48.888;9.226;2023-07-30T04:47:54;159958.06;;;18.76;100.00
7940;BME280;4015;48.888;9.226;2023-07-30T04:50:20;159943.94;;;18.70;100.00
7940;BME280;4015;48.888;9.226;2023-07-30T04:52:45;159947.78;;;18.72;100.00
7940;BME280;4015;48.888;9.226;2023-07-30T04:55:10;159943.94;;;18.70;100.00
7940;BME280;4015;48.888;9.226;2023-07-30T04:57:36;160013.25;;;18.98;100.00
7940;BME280;4015;48.888;9.226;2023-07-30T05:00:01;160005.56;;;18.95;100.00
7940;BME280;4015;48.888;9.226;2023-07-30T05:02:27;160006.84;;;18.95;100.00
7940;BME280;4015;48.888;9.226;2023-07-30T05:04:52;160009.41;;;18.96;100.00
7940;BME280;4015;48.888;9.226;2023-07-30T05:07:17;160008.13;;;18.96;100.00
7940;BME280;4015;48.888;9.226;2023-07-30T05:09:43;159992.72;;;18.90;100.00
7940;BME280;4015;48.888;9.226;2023-07-30T05:12:08;159976.03;;;18.83;100.00
7940;BME280;4015;48.888;9.226;2023-07-30T05:14:33;159979.88;;;18.84;100.00
7940;BME280;4015;48.888;9.226;2023-07-30T05:16:59;159968.34;;;18.80;100.00
7940;BME280;4015;48.888;9.226;2023-07-30T05:19:24;159970.91;;;18.81;100.00
7940;BME280;4015;48.888;9.226;2023-07-30T05:21:49;159991.44;;;18.89;100.00
7940;BME280;4015;48.888;9.226;2023-07-30T05:24:15;159972.19;;;18.81;100.00
7940;BME280;4015;48.888;9.226;2023-07-30T05:26:40;159955.50;;;18.75;100.00
7940;BME280;4015;48.888;9.226;2023-07-30T05:29:05;159956.78;;;18.75;100.00
7940;BME280;4015;48.888;9.226;2023-07-30T05:31:31;159970.91;;;18.81;100.00
7940;BME280;4015;48.888;9.226;2023-07-30T05:33:56;159936.25;;;18.67;100.00
7940;BME280;4015;48.888;9.226;2023-07-30T05:36:22;159907.97;;;18.56;100.00
7940;BME280;4015;48.888;9.226;2023-07-30T05:38:47;159955.50;;;18.75;100.00
7940;BME280;4015;48.888;9.226;2023-07-30T05:41:12;159968.34;;;18.80;100.00
7940;BME280;4015;48.888;9.226;2023-07-30T05:43:38;159938.81;;;18.68;100.00
7940;BME280;4015;48.888;9.226;2023-07-30T05:46:03;159916.91;;;18.59;100.00
7940;BME280;4015;48.888;9.226;2023-07-30T05:48:28;159955.50;;;18.75;100.00
7940;BME280;4015;48.888;9.226;2023-07-30T05:50:54;159951.66;;;18.73;100.00
7940;BME280;4015;48.888;9.226;2023-07-30T05:53:20;159983.75;;;18.86;100.00
7940;BME280;4015;48.888;9.226;2023-07-30T05:55:45;159959.34;;;18.76;100.00
7940;BME280;4015;48.888;9.226;2023-07-30T05:58:11;159931.03;;;18.65;100.00
7940;BME280;4015;48.888;9.226;2023-07-30T06:00:36;159986.31;;;18.87;100.00
7940;BME280;4015;48.888;9.226;2023-07-30T06:03:02;160095.47;;;19.30;100.00
7940;BME280;4015;48.888;9.226;2023-07-30T06:05:28;160153.22;;;19.53;100.00
7940;BME280;4015;48.888;9.226;2023-07-30T06:07:53;160106.97;;;19.35;100.00
7940;BME280;4015;48.888;9.226;2023-07-30T06:10:19;160091.56;;;19.29;100.00
7940;BME280;4015;48.888;9.226;2023-07-30T06:12:44;160076.16;;;19.23;100.00
7940;BME280;4015;48.888;9.226;2023-07-30T06:15:10;160100.56;;;19.32;100.00
7940;BME280;4015;48.888;9.226;2023-07-30T06:17:35;160086.44;;;19.27;100.00
7940;BME280;4015;48.888;9.226;2023-07-30T06:20:01;160105.69;;;19.34;100.00
7940;BME280;4015;48.888;9.226;2023-07-30T06:22:27;160115.97;;;19.38;100.00
7940;BME280;4015;48.888;9.226;2023-07-30T06:24:52;160091.56;;;19.29;100.00
7940;BME280;4015;48.888;9.226;2023-07-30T06:27:18;160087.72;;;19.27;100.00
7940;BME280;4015;48.888;9.226;2023-07-30T06:29:43;160171.22;;;19.60;100.00
7940;BME280;4015;48.888;9.226;2023-07-30T06:32:08;160203.34;;;19.73;100.00
7940;BME280;4015;48.888;9.226;2023-07-30T06:34:34;160186.66;;;19.66;100.00
7940;BME280;4015;48.888;9.226;2023-07-30T06:36:59;160185.38;;;19.66;99.10
7940;BME280;4015;48.888;9.226;2023-07-30T06:39:24;160220.03;;;19.80;99.92
7940;BME280;4015;48.888;9.226;2023-07-30T06:41:50;160309.97;;;20.15;98.19
7940;BME280;4015;48.888;9.226;2023-07-30T06:44:15;160361.34;;;20.36;99.17
7940;BME280;4015;48.888;9.226;2023-07-30T06:46:41;160439.78;;;20.67;97.61
7940;BME280;4015;48.888;9.226;2023-07-30T06:49:06;160502.75;;;20.92;95.77
7940;BME280;4015;48.888;9.226;2023-07-30T06:51:32;160518.16;;;20.98;94.92
7940;BME280;4015;48.888;9.226;2023-07-30T06:53:57;160594.00;;;21.28;93.58
7940;BME280;4015;48.888;9.226;2023-07-30T06:56:22;160636.50;;;21.45;94.25
7940;BME280;4015;48.888;9.226;2023-07-30T06:58:47;160685.34;;;21.64;91.92
7940;BME280;4015;48.888;9.226;2023-07-30T07:01:13;160723.88;;;21.79;90.11
7940;BME280;4015;48.888;9.226;2023-07-30T07:03:38;160667.34;;;21.57;89.05
7940;BME280;4015;48.888;9.226;2023-07-30T07:06:04;160654.47;;;21.52;91.39
7940;BME280;4015;48.888;9.226;2023-07-30T07:08:30;160671.19;;;21.59;92.67
7940;BME280;4015;48.888;9.226;2023-07-30T07:10:55;160610.75;;;21.35;92.54
7940;BME280;4015;48.888;9.226;2023-07-30T07:13:20;160592.72;;;21.27;92.57
7940;BME280;4015;48.888;9.226;2023-07-30T07:15:46;160572.19;;;21.19;95.02
7940;BME280;4015;48.888;9.226;2023-07-30T07:18:11;160565.72;;;21.17;92.88
7940;BME280;4015;48.888;9.226;2023-07-30T07:20:37;160538.75;;;21.06;94.91
7940;BME280;4015;48.888;9.226;2023-07-30T07:23:03;160617.22;;;21.37;94.18
7940;BME280;4015;48.888;9.226;2023-07-30T07:25:29;160630.03;;;21.42;93.54
7940;BME280;4015;48.888;9.226;2023-07-30T07:27:54;160541.31;;;21.07;94.42
7940;BME280;4015;48.888;9.226;2023-07-30T07:30:19;160505.28;;;20.93;95.41
7940;BME280;4015;48.888;9.226;2023-07-30T07:32:44;160516.88;;;20.97;95.87
7940;BME280;4015;48.888;9.226;2023-07-30T07:35:10;160532.31;;;21.04;95.74
7940;BME280;4015;48.888;9.226;2023-07-30T07:37:35;160478.34;;;20.82;96.29
7940;BME280;4015;48.888;9.226;2023-07-30T07:40:01;160513.03;;;20.96;97.01
7940;BME280;4015;48.888;9.226;2023-07-30T07:42:29;160473.19;;;20.80;99.13
7940;BME280;4015;48.888;9.226;2023-07-30T07:44:54;160483.47;;;20.84;97.17
7940;BME280;4015;48.888;9.226;2023-07-30T07:47:20;160441.06;;;20.67;97.02
7940;BME280;4015;48.888;9.226;2023-07-30T07:49:45;160351.09;;;20.32;97.28
7940;BME280;4015;48.888;9.226;2023-07-30T07:52:10;160290.69;;;20.08;99.29
7940;BME280;4015;48.888;9.226;2023-07-30T07:54:36;160270.16;;;20.00;97.96
7940;BME280;4015;48.888;9.226;2023-07-30T07:57:01;160139.06;;;19.48;99.28
7940;BME280;4015;48.888;9.226;2023-07-30T07:59:27;160095.47;;;19.30;99.71
7940;BME280;4015;48.888;9.226;2023-07-30T08:01:53;160087.72;;;19.27;100.00
7940;BME280;4015;48.888;9.226;2023-07-30T08:04:18;160081.31;;;19.25;100.00
7940;BME280;4015;48.888;9.226;2023-07-30T08:06:46;160114.72;;;19.38;100.00
7940;BME280;4015;48.888;9.226;2023-07-30T08:09:11;160114.72;;;19.38;99.70
7940;BME280;4015;48.888;9.226;2023-07-30T08:11:37;160203.34;;;19.73;100.00
7940;BME280;4015;48.888;9.226;2023-07-30T08:14:02;160279.13;;;20.03;99.01
7940;BME280;4015;48.888;9.226;2023-07-30T08:16:27;160344.63;;;20.29;97.46
7940;BME280;4015;48.888;9.226;2023-07-30T08:18:53;160363.94;;;20.37;96.75
7940;BME280;4015;48.888;9.226;2023-07-30T08:21:18;160366.50;;;20.38;94.67
7940;BME280;4015;48.888;9.226;2023-07-30T08:23:46;160425.63;;;20.61;94.88
7940;BME280;4015;48.888;9.226;2023-07-30T08:26:11;160489.94;;;20.87;93.60
7940;BME280;4015;48.888;9.226;2023-07-30T08:28:36;160581.13;;;21.23;90.24
7940;BME280;4015;48.888;9.226;2023-07-30T08:31:02;160698.22;;;21.69;87.39
7940;BME280;4015;48.888;9.226;2023-07-30T08:33:27;160771.47;;;21.98;88.42
7940;BME280;4015;48.888;9.226;2023-07-30T08:35:56;160861.53;;;22.34;85.31
7940;BME280;4015;48.888;9.226;2023-07-30T08:38:22;160892.41;;;22.46;84.28
7940;BME280;4015;48.888;9.226;2023-07-30T08:40:47;161028.81;;;23.00;84.47
7940;BME280;4015;48.888;9.226;2023-07-30T08:43:13;161113.75;;;23.34;84.14
7940;BME280;4015;48.888;9.226;2023-07-30T08:45:38;160964.44;;;22.75;81.40
7940;BME280;4015;48.888;9.226;2023-07-30T08:48:04;160964.44;;;22.75;82.00
7940;BME280;4015;48.888;9.226;2023-07-30T08:50:29;161041.69;;;23.05;80.14
7940;BME280;4015;48.888;9.226;2023-07-30T08:52:55;160967.03;;;22.76;83.66
7940;BME280;4015;48.888;9.226;2023-07-30T08:55:22;160879.56;;;22.41;82.56
7940;BME280;4015;48.888;9.226;2023-07-30T08:57:50;161104.72;;;23.30;83.36
7940;BME280;4015;48.888;9.226;2023-07-30T09:00:18;161200.00;;;23.68;80.47
7940;BME280;4015;48.888;9.226;2023-07-30T09:02:48;161197.44;;;23.67;79.41
7940;BME280;4015;48.888;9.226;2023-07-30T09:05:15;161057.13;;;23.11;80.16
7940;BME280;4015;48.888;9.226;2023-07-30T09:07:40;161201.28;;;23.68;79.04
7940;BME280;4015;48.888;9.226;2023-07-30T09:10:07;161443.38;;;24.64;79.40
7940;BME280;4015;48.888;9.226;2023-07-30T09:12:33;161853.06;;;26.26;71.31
7940;BME280;4015;48.888;9.226;2023-07-30T09:14:59;161657.19;;;25.49;70.66
7940;BME280;4015;48.888;9.226;2023-07-30T09:17:25;161536.06;;;25.01;74.85
7940;BME280;4015;48.888;9.226;2023-07-30T09:19:51;161227.03;;;23.79;75.26
7940;BME280;4015;48.888;9.226;2023-07-30T09:22:35;161306.84;;;24.10;77.38
7940;BME280;4015;48.888;9.226;2023-07-30T09:25:07;161323.56;;;24.17;74.96
7940;BME280;4015;48.888;9.226;2023-07-30T09:27:33;161130.47;;;23.40;76.31
7940;BME280;4015;48.888;9.226;2023-07-30T09:30:00;161024.94;;;22.99;77.67
7940;BME280;4015;48.888;9.226;2023-07-30T09:32:31;161068.69;;;23.16;78.36
7940;BME280;4015;48.888;9.226;2023-07-30T09:35:14;160990.19;;;22.85;75.37
7940;BME280;4015;48.888;9.226;2023-07-30T09:37:41;161113.75;;;23.34;76.29
7940;BME280;4015;48.888;9.226;2023-07-30T09:40:11;161238.63;;;23.83;72.17
7940;BME280;4015;48.888;9.226;2023-07-30T09:42:38;161207.75;;;23.71;75.66
7940;BME280;4015;48.888;9.226;2023-07-30T09:45:08;161369.97;;;24.35;73.18
7940;BME280;4015;48.888;9.226;2023-07-30T09:47:46;161534.78;;;25.00;71.02
7940;BME280;4015;48.888;9.226;2023-07-30T09:50:11;161436.91;;;24.62;70.05
7940;BME280;4015;48.888;9.226;2023-07-30T09:52:37;161506.47;;;24.89;68.93
7940;BME280;4015;48.888;9.226;2023-07-30T09:55:06;161360.88;;;24.32;71.22
7940;BME280;4015;48.888;9.226;2023-07-30T09:57:32;161536.06;;;25.01;70.93
7940;BME280;4015;48.888;9.226;2023-07-30T09:59:58;161501.28;;;24.87;68.46
7940;BME280;4015;48.888;9.226;2023-07-30T10:02:24;161466.53;;;24.73;66.32
7940;BME280;4015;48.888;9.226;2023-07-30T10:04:53;161269.53;;;23.95;68.99
7940;BME280;4015;48.888;9.226;2023-07-30T10:07:23;161120.16;;;23.36;70.72
7940;BME280;4015;48.888;9.226;2023-07-30T10:09:51;161227.03;;;23.79;68.84
7940;BME280;4015;48.888;9.226;2023-07-30T10:12:22;161215.44;;;23.74;67.76
7940;BME280;4015;48.888;9.226;2023-07-30T10:14:48;161474.28;;;24.77;64.72
7940;BME280;4015;48.888;9.226;2023-07-30T10:17:13;161467.81;;;24.74;65.72
7940;BME280;4015;48.888;9.226;2023-07-30T10:19:41;161301.72;;;24.08;67.22
7940;BME280;4015;48.888;9.226;2023-07-30T10:24:38;161869.81;;;26.33;62.90
7940;BME280;4015;48.888;9.226;2023-07-30T10:27:08;162045.16;;;27.02;60.27
7940;BME280;4015;48.888;9.226;2023-07-30T10:29:35;162517.31;;;28.89;55.17
7940;BME280;4015;48.888;9.226;2023-07-30T10:32:01;162476.00;;;28.72;56.86
7940;BME280;4015;48.888;9.226;2023-07-30T10:34:43;162443.75;;;28.60;54.66
7940;BME280;4015;48.888;9.226;2023-07-30T10:37:09;162436.03;;;28.57;57.24
7940;BME280;4015;48.888;9.226;2023-07-30T10:39:34;162627.03;;;29.32;54.11
7940;BME280;4015;48.888;9.226;2023-07-30T10:42:00;162568.97;;;29.09;52.18
7940;BME280;4015;48.888;9.226;2023-07-30T10:44:31;162241.25;;;27.80;55.50
7940;BME280;4015;48.888;9.226;2023-07-30T10:46:58;162268.28;;;27.90;57.35
7940;BME280;4015;48.888;9.226;2023-07-30T10:49:24;162455.38;;;28.64;52.68
7940;BME280;4015;48.888;9.226;2023-07-30T10:51:54;162485.06;;;28.76;52.19
7940;BME280;4015;48.888;9.226;2023-07-30T10:54:20;162636.09;;;29.36;51.56
7940;BME280;4015;48.888;9.226;2023-07-30T10:56:46;163060.91;;;31.03;47.83
7940;BME280;4015;48.888;9.226;2023-07-30T10:59:12;163148.81;;;31.38;47.15
7940;BME280;4015;48.888;9.226;2023-07-30T11:01:38;163616.66;;;33.22;46.78
7940;BME280;4015;48.888;9.226;2023-07-30T11:04:33;163363.25;;;32.22;45.99
7940;BME280;4015;48.888;9.226;2023-07-30T11:06:58;162858.16;;;30.23;49.22
7940;BME280;4015;48.888;9.226;2023-07-30T11:09:26;162421.84;;;28.51;50.97
7940;BME280;4015;48.888;9.226;2023-07-30T11:11:55;161966.50;;;26.71;56.78
7940;BME280;4015;48.888;9.226;2023-07-30T11:14:23;162286.41;;;27.98;55.59
7940;BME280;4015;48.888;9.226;2023-07-30T11:16:52;161882.72;;;26.38;58.41
7940;BME280;4015;48.888;9.226;2023-07-30T11:19:18;161461.41;;;24.71;62.37
7940;BME280;4015;48.888;9.226;2023-07-30T11:21:48;161256.66;;;23.90;64.79
7940;BME280;4015;48.888;9.226;2023-07-30T11:24:14;160986.31;;;22.83;67.36
7940;BME280;4015;48.888;9.226;2023-07-30T11:26:39;160801.09;;;22.10;68.88
7940;BME280;4015;48.888;9.226;2023-07-30T11:29:18;160609.47;;;21.34;71.38
7940;BME280;4015;48.888;9.226;2023-07-30T11:31:45;160541.31;;;21.07;71.34
7940;BME280;4015;48.888;9.226;2023-07-30T11:34:12;160493.78;;;20.88;72.06
7940;BME280;4015;48.888;9.226;2023-07-30T11:36:38;160549.00;;;21.10;72.44
7940;BME280;4015;48.888;9.226;2023-07-30T11:39:05;160653.19;;;21.51;73.00
7940;BME280;4015;48.888;9.226;2023-07-30T11:41:32;160752.19;;;21.91;72.39
7940;BME280;4015;48.888;9.226;2023-07-30T11:43:57;160904.00;;;22.51;70.32
7940;BME280;4015;48.888;9.226;2023-07-30T11:46:23;161207.75;;;23.71;63.55
7940;BME280;4015;48.888;9.226;2023-07-30T11:48:52;161864.69;;;26.31;59.55
7940;BME280;4015;48.888;9.226;2023-07-30T11:51:26;162140.59;;;27.40;54.62
7940;BME280;4015;48.888;9.226;2023-07-30T11:56:27;162547.03;;;29.00;49.99
7940;BME280;4015;48.888;9.226;2023-07-30T11:59:01;163126.81;;;31.29;46.92
7940;BME280;4015;48.888;9.226;2023-07-30T12:01:29;163005.41;;;30.81;46.73
7940;BME280;4015;48.888;9.226;2023-07-30T12:03:58;163352.97;;;32.18;48.15
7940;BME280;4015;48.888;9.226;2023-07-30T12:06:24;163284.47;;;31.91;46.07
7940;BME280;4015;48.888;9.226;2023-07-30T12:08:50;163013.13;;;30.84;46.82
7940;BME280;4015;48.888;9.226;2023-07-30T12:11:17;163041.56;;;30.96;47.88
7940;BME280;4015;48.888;9.226;2023-07-30T12:13:45;163396.91;;;32.36;43.79
7940;BME280;4015;48.888;9.226;2023-07-30T12:16:10;163442.13;;;32.54;44.33
7940;BME280;4015;48.888;9.226;2023-07-30T12:18:37;163471.84;;;32.65;44.97
7940;BME280;4015;48.888;9.226;2023-07-30T12:21:02;163288.31;;;31.93;45.18
7940;BME280;4015;48.888;9.226;2023-07-30T12:23:29;163201.75;;;31.59;46.35
7940;BME280;4015;48.888;9.226;2023-07-30T12:25:55;163068.69;;;31.06;47.25
7940;BME280;4015;48.888;9.226;2023-07-30T12:28:20;163148.81;;;31.38;45.75
7940;BME280;4015;48.888;9.226;2023-07-30T12:30:46;163231.47;;;31.71;45.55
7940;BME280;4015;48.888;9.226;2023-07-30T12:33:11;163457.63;;;32.60;44.33
7940;BME280;4015;48.888;9.226;2023-07-30T12:35:36;163394.31;;;32.35;43.30
7940;BME280;4015;48.888;9.226;2023-07-30T12:38:02;163215.97;;;31.64;42.22
7940;BME280;4015;48.888;9.226;2023-07-30T12:40:27;163144.88;;;31.36;43.02
7940;BME280;4015;48.888;9.226;2023-07-30T12:42:59;163325.81;;;32.08;42.74
7940;BME280;4015;48.888;9.226;2023-07-30T12:45:24;163036.41;;;30.94;43.34
7940;BME280;4015;48.888;9.226;2023-07-30T12:47:49;163275.44;;;31.88;43.51
7940;BME280;4015;48.888;9.226;2023-07-30T12:50:15;163221.13;;;31.66;42.90
7940;BME280;4015;48.888;9.226;2023-07-30T12:52:40;163040.28;;;30.95;45.08
7940;BME280;4015;48.888;9.226;2023-07-30T12:55:05;163148.81;;;31.38;44.15
7940;BME280;4015;48.888;9.226;2023-07-30T12:57:31;163363.25;;;32.22;43.70
7940;BME280;4015;48.888;9.226;2023-07-30T12:59:56;163271.53;;;31.86;41.83
7940;BME280;4015;48.888;9.226;2023-07-30T13:02:22;163109.97;;;31.23;43.06
7940;BME280;4015;48.888;9.226;2023-07-30T13:04:48;163213.38;;;31.63;43.16